Witaj w:

Timerecords.pl

version.

1.0

create by.

in4matica.pl

in4matica.pl

® all rights reserved

in4matica

Energy Events sp. z o.o. sp. k. Kaszubska 53, 80-297 Miszewko Regon 363215133, NIP 5892020999 Kontakt: kontakt@trienergy.pl Tel: +48 585851584 Fax +48 58 585 1 589

Wirtualny Biegowy Puchar Pomorza - 10 km - I bieg

2020-06-07
Position Full name Club Pos. by category Category Pos. by sex Total time Loss
1 CICHURA Arkadiusz 1 M30 1 00:29:02 00:00:00
2 GAJEWSKI Rafał AZS UG / Dobromiejski Klub Biegacza "Odcisk" 1 M18 2 00:38:44 00:09:42
3 PAGÓRSKI Jakub Akademia Marynarki Wojennej 2 M18 3 00:40:09 00:11:07
4 SUCHOWIECKI Wojciech Klub Sportowy Niemaniemogę 1 M40 4 00:40:35 00:11:33
5 RYTLEWSKI Tomasz 2 M30 5 00:40:45 00:11:43
6 PODEDWORNY Wiktor IM Inspiration Team Karaś 3 M30 6 00:41:40 00:12:38
7 WOJCIECHOWSKI Norbert Altom Gniezno 2 M40 7 00:42:11 00:13:09
8 MIKA Tomasz LABOSPORT Team 3 M40 8 00:42:40 00:13:38
9 WILMONT Krzysztof Centrum Szkolenia Marynarki Wojennej w Ustce 4 M30 9 00:42:42 00:13:40
10 PAWLIN Mateusz TRIZARZA 3 M18 10 00:42:47 00:13:45
11 PADUSZYŃSKI Piotr edustacyjka.pl triathlon team 4 M40 11 00:43:05 00:14:03
12 KOWALCZYK Piotr Kaziki/Triwawa 5 M30 12 00:43:15 00:14:13
13 KOKOT Michał Dobra Energia 6 M30 13 00:43:23 00:14:21
14 GRZYBOWSKI Arkadiusz RSV Tria Bühlertal 7 M30 14 00:43:31 00:14:29
15 GNIOT Jacek Wojskowe Zakłady Uzbrojenia S.A. 5 M40 15 00:43:43 00:14:41
16 NADROWSKI Kamil 8 M30 16 00:44:12 00:15:10
17 TUSZYŃSKI Jarosław 9 M30 17 00:44:17 00:15:15
18 RUZIK Rafał RURA TEAM / Tripower.pl 6 M40 18 00:44:23 00:15:21
19 SOCHA Tomasz Trinergy 1 M50 19 00:44:26 00:15:24
20 PAWLOWSKI Radoslaw Trinergy 7 M40 20 00:44:27 00:15:25
21 EPELBAUM Dariusz CTS 8 M40 21 00:44:33 00:15:31
22 SZYMKOWIAK Norbert 4 M18 22 00:44:36 00:15:34
23 FIREK Adrian Hit the trail Tomasz Klisz 10 M30 23 00:44:39 00:15:37
24 DUCHNOWSKI Radosław MKS Puszkin 9 M40 24 00:44:56 00:15:54
25 MACHERA Rafał 11 M30 25 00:45:00 00:15:58
26 SOBOLEWSKI Jakub Bractwo Biegowe BGK/Ironman Inspiration 10 M40 26 00:45:02 00:16:00
27 GALL Rafał RAMASPORT.PL 11 M40 27 00:45:04 00:16:02
28 NAFALSKI Rajmund TEAMKARAŚ 12 M40 28 00:45:06 00:16:04
29 KAMIŃSKI Jan Team Karaś 12 M30 29 00:45:10 00:16:08
30 WOJCIESZKO Piotr GVT 13 M30 30 00:45:27 00:16:25
31 SOSNOWSKI Jaroslaw PTT DELTA / Kalach Team 13 M40 31 00:45:29 00:16:27
32 CIEMIELEWSKI Piotr Toruń Multisport Team 14 M30 32 00:45:38 00:16:36
33 WOŁOŚ Ewelina TRIWAWA 1 K30 1 00:45:40 00:16:38
34 WIŚNIEWSKI Adam 5 M18 33 00:45:41 00:16:39
35 PODZIEWSKI Arkadiusz Trinergy 14 M40 34 00:45:41 00:16:39
36 OWORUSZKO Jarosław CTS 15 M40 35 00:45:43 00:16:41
37 CYBULSKI Konrad AMZ-KUTNO 16 M40 36 00:46:03 00:17:01
38 BIOLIK Wojciech BiolikTeam 15 M30 37 00:46:18 00:17:16
39 PYKA Marek 17 M40 38 00:46:22 00:17:20
40 ŁOŚ Adam KTS IRONMAN 16 M30 39 00:46:38 00:17:36
41 JASEK Adrian TEAM ŹRÓDLANA 17 M30 40 00:46:47 00:17:45
42 KOŁODZIEJSKI Ariel TeamKaraś / KPMG Triathlon Team 18 M30 41 00:46:47 00:17:45
43 KNAPIK Mariusz SPORTOWA CZĘSTOCHOWA 18 M40 42 00:46:58 00:17:56
44 KONIOR Wojciech Beskid Tri 19 M40 43 00:47:10 00:18:08
45 MATYSIAK Robert Power of Science 20 M40 44 00:47:22 00:18:20
46 IZART Bartosz 19 M30 45 00:47:34 00:18:32
47 RYBARCZYK Jacek KS Start Pułaski Warka 21 M40 46 00:47:37 00:18:35
48 MINKINA Maciej 20 M30 47 00:47:48 00:18:46
49 PACHLA Adam TRIWAWA 22 M40 48 00:48:02 00:19:00
50 GRZEGORCZYK Mateusz Zakochaj się w bieganiu 6 M18 49 00:48:13 00:19:11
51 SZKLARCZYK Artur BikeSalon Team 21 M30 50 00:48:14 00:19:12
52 TRZASKA Paweł 22 M30 51 00:48:25 00:19:23
53 GĄSIOR Patryk #gasiorteam 7 M18 52 00:48:28 00:19:26
54 SKROK Krzysztof Rykowisko 2 M50 53 00:48:43 00:19:41
55 JANKOWIAK Marcin aleTEMPO 23 M30 54 00:48:55 00:19:53
56 CHMIELEWSKI Rafał TRIDivision Triathlon Team 24 M40 55 00:49:00 00:19:58
57 DOBRZYŃSKI Przemysław Klub Sportowy "szukam_sponsora_team" 23 M40 56 00:49:00 00:19:58
58 CHAMERA Paweł 8 M18 57 00:49:05 00:20:03
59 PAC Arkadiusz PersonalTriathlon.pl 24 M30 58 00:49:08 00:20:06
60 GLINKA Michal No Name Praszka 25 M40 59 00:49:12 00:20:10
61 LACHOWICZ Piotr (F)Laszki Team 26 M40 60 00:49:35 00:20:33
62 WASILEWSKI Krzysztof 25 M30 61 00:49:38 00:20:36
63 MASŁOWSKI Marcin 27 M40 62 00:49:38 00:20:36
64 IDZIKOWSKI Maciej 26 M30 63 00:49:55 00:20:53
65 SOBCZAK Dominik 28 M40 64 00:49:55 00:20:53
66 PŁÓCIENNIK Dominik 9 M18 65 00:50:06 00:21:04
67 AMBROZIAK Artur 27 M30 66 00:50:11 00:21:09
68 GÓRSKI Łukasz 28 M30 67 00:50:13 00:21:11
69 SŁABY Tomasz Mistrzowskie Rowery Lech Piasecki 29 M40 68 00:50:34 00:21:32
70 TOKARSKI Przemysław Tri Aktywny Piotrków 30 M40 69 00:50:36 00:21:34
71 MIEDZIAK Sebastian LS Plus Recykling Team/ Be3 Cityzen Poznań 29 M30 70 00:50:43 00:21:41
72 OLSZEWSKI Aleksander TRINERGY Team 30 M30 71 00:50:48 00:21:46
73 STAWOWCZYK Waldemar KB SPARTAKUS 31 M40 72 00:50:49 00:21:47
74 RZYTKI Piotr KB V-Max 31 M30 73 00:51:01 00:21:59
75 BESZŁEJ Maciej 32 M30 74 00:51:02 00:22:00
76 ADACH Kazimierz SKB CZARNI 1 M60 75 00:51:04 00:22:02
77 MALINOWSKI Marcin 32 M40 76 00:51:04 00:22:02
78 WASILEWSKI Piotr Neon 33 M40 77 00:51:06 00:22:04
79 WĄSOWSKI Szymon 33 M30 78 00:51:07 00:22:05
80 ZAHRI Kamil Endure Team 34 M30 79 00:51:16 00:22:14
81 ŁUBIŃSKI Krzysztof 34 M40 80 00:51:27 00:22:25
82 MADEJSKI Sylwester Rapid 35 M40 81 00:51:36 00:22:34
83 KOWALIK Mieczysław Kowaliki 3 M50 82 00:51:42 00:22:40
84 SOKÓŁ Adam PersonalTriathlon.pl 36 M40 83 00:52:03 00:23:01
85 SALINSKI Michal TRAKTOR TEAM 35 M30 84 00:52:15 00:23:13
86 KONIECZNY Marcel 10 M18 85 00:52:17 00:23:15
87 DĄBROWSKI Tomasz TwisterTeam 37 M40 86 00:52:24 00:23:22
88 BRONAKOWSKA Dorota PersonalTriathlon 2 K30 2 00:52:28 00:23:26
89 GRYŚ Piotr 38 M40 87 00:52:33 00:23:31
90 SZKLARCZYK Michał 36 M30 88 00:52:40 00:23:38
91 SKIBA Mariusz KS Ironman Szczecin 37 M30 89 00:52:45 00:23:43
92 POLKOWSKA Monika CTS 1 K40 3 00:53:03 00:24:01
93 SOWA Andrzej 39 M40 90 00:53:09 00:24:07
94 MASTALERZ Tomasz 40 M40 91 00:53:12 00:24:10
95 LESIAK Tomasz 38 M30 92 00:53:12 00:24:10
96 JANICKA-JAWOR Joanna emjot tri team 2 K40 4 00:53:18 00:24:16
97 BURSKI Paweł 4 M50 93 00:53:18 00:24:16
98 KUŚMIERZ Grzegorz Eskadra Kraków 41 M40 94 00:53:23 00:24:21
99 ZBIERAŃSKI Michał 39 M30 95 00:53:35 00:24:33
100 IGNASIAK Jakub 2Tm 4,7 40 M30 96 00:53:37 00:24:35
101 LUPA Marcin GVT 42 M40 97 00:53:39 00:24:37
102 CIESIELSKI Maciej MBC Team 41 M30 98 00:54:19 00:25:17
103 MIELNIK Krzysztof DC Triathlon Team 42 M30 99 00:54:27 00:25:25
104 ROSA Grzegorz Omega Fitness&Gym Luzino 43 M40 100 00:54:30 00:25:28
105 ROMAN Krzysztof Przecinak77 44 M40 101 00:54:46 00:25:44
106 SZYDŁOWSKI Paweł 45 M40 102 00:54:47 00:25:45
107 ZIEMIAKOWSKI Sławomir VEOLIA 46 M40 103 00:54:59 00:25:57
108 PALCZEWSKI Marcin m.inżynieria 47 M40 104 00:55:23 00:26:21
109 SOJKOWSKI Piotr Tri NEGU 43 M30 105 00:55:38 00:26:36
110 BAKUNIAK Hanna Biankowski Team 1 K18 5 00:55:39 00:26:37
111 RETKIEWICZ Robert 44 M30 106 00:55:40 00:26:38
112 SPUŁTOWSKA Joanna VEOLIA 3 K40 6 00:55:53 00:26:51
113 JANCZYK Rafal HTF Ludwik Sikorski 48 M40 107 00:56:08 00:27:06
114 SŁOMKA Mateusz 45 M30 108 00:56:27 00:27:25
115 BARZYK Mateusz 49 M40 109 00:56:28 00:27:26
116 OWCZAREK Jacek O co biega Pabianice 50 M40 110 00:56:36 00:27:34
117 KŁOS Jan #teamkalach 46 M30 111 00:56:50 00:27:48
118 ORŁOWSKI Piotr 47 M30 112 00:57:01 00:27:59
119 OSIECKI Adam 51 M40 113 00:57:04 00:28:02
120 KOWALIK Magda Kowaliki 3 K30 7 00:57:20 00:28:18
121 STOLECKI Piotr Drużyna Szpiku/SP w Kurnosie Drugim 52 M40 114 00:57:36 00:28:34
122 POLAKIEWICZ Dariusz 53 M40 115 00:57:42 00:28:40
123 WROŃSKA Agnieszka (F)Laszki Team 4 K40 8 00:57:46 00:28:44
124 DARGACZ Katarzyna 4 K30 9 00:57:58 00:28:56
125 ZAJĄC Piotr Cyklon 48 M30 116 00:58:01 00:28:59
126 KOWALCZYK Jarosław GT KONA 54 M40 117 00:58:15 00:29:13
127 BAR Julita JAtrenuje 5 K30 10 00:58:33 00:29:31
128 OTTA Paweł 11 M18 118 00:58:33 00:29:31
129 KĘDZIERSKI Szymon 49 M30 119 00:58:40 00:29:38
130 NIEWIADOMSKI Damian Trizarza 55 M40 120 00:58:57 00:29:55
131 GAZARKIEWICZ Antoni BHMW_GDYNIA 2 M60 121 00:59:17 00:30:15
132 ZOBER Marek Chop Ze Żelaza Tri Team 50 M30 122 00:59:28 00:30:26
133 MICHALSKA Marta --- 2 K18 11 00:59:35 00:30:33
134 LISOWSKI Kamil 51 M30 123 00:59:49 00:30:47
135 BRONAKOWSKI Piotr personaltriathlon.pl 56 M40 124 01:00:03 00:31:01
136 KONIECZNY Jacek 52 M30 125 01:00:03 00:31:01
137 SZCZODROWSKA Wioletta TriMama Team 5 K40 12 01:00:24 00:31:22
138 GUGULSKI Antoni 5 M50 126 01:00:29 00:31:27
139 KĘPIŃSKI Henryk KB Spartakus Bełchatów 3 M60 127 01:01:07 00:32:05
140 ZESZUTEK Natalia Complexsports/TRI Ladies 6 K30 13 01:01:19 00:32:17
141 MILER-WALCZAK Monika I-SPORT 6 K40 14 01:01:33 00:32:31
142 KARWACKI Bartłomiej Sam 12 M18 128 01:01:52 00:32:50
143 KĘPA Tomasz 57 M40 129 01:02:15 00:33:13
144 SOBCZAK Paweł 4 M60 130 01:02:35 00:33:33
145 FIJAŁKOWSKI Arkadiusz Tri Aktywny Piotrków 53 M30 131 01:02:49 00:33:47
146 KACPRZAK Michał 54 M30 132 01:02:56 00:33:54
147 KOCIK Arkadiusz 6 M50 133 01:03:03 00:34:01
148 BAGIŃSKI Ryszard Tri Aktywny Piotrków 58 M40 134 01:03:05 00:34:03
149 KAŁUŻA Radek Warach Rowery 55 M30 135 01:03:19 00:34:17
150 KONTAKIEWICZ Daniel Tri NEGU 59 M40 136 01:03:57 00:34:55
151 MIKOŁAJCZYK Mateusz 56 M30 137 01:04:09 00:35:07
152 MUSIAŁ Adam TRĄBKI WIELKIE 60 M40 138 01:04:11 00:35:09
153 SCHMIDT Agnieszka 7 K30 15 01:04:26 00:35:24
154 MAJCHRZAK Marcin 61 M40 139 01:04:29 00:35:27
155 LEPA-ROMAN Magdalena Przecinak77 7 K40 16 01:05:56 00:36:54
156 KOTLICKA Kamila TriMama Team 8 K40 17 01:06:00 00:36:58
157 MAŁKIŃSKI Józef 5 M60 140 01:06:22 00:37:20
158 KONARSKA Edyta 9 K40 18 01:08:03 00:39:01
159 STOLARSKI Puncher WM Triself 62 M40 141 01:08:04 00:39:02
160 RETKIEWICZ Mariusz #teamCOMKAS 63 M40 142 01:09:53 00:40:51
161 BRZOSTOWICZ Ewelina WANDA PANFIL TEAM 10 K40 19 01:09:58 00:40:56
162 GALIŃSKI Tomasz 64 M40 143 01:10:34 00:41:32
163 CIEMIELEWSKA Katarzyna Toruń Multisport Team 8 K30 20 01:10:59 00:41:57
164 TYLUTKI Kamil MBC Team 57 M30 144 01:11:49 00:42:47